Time;durP1;ratioP1;P1;durP2;ratioP2;P2;SDS_P1;SDS_P2;PMS_P1;PMS_P2;Temp;Humidity;BMP_temperature;BMP_pressure;BME280_temperature;BME280_humidity;BME280_pressure;Samples;Min_cycle;Max_cycle;Signal;HPM_P1;HPM_P2
2021/08/16 00:01:12;;;;;;;8.60;6.20;;;;;;;23.19;60.65;96061.33;1766634;80;21046;-82
2021/08/16 00:03:38;;;;;;;7.45;6.62;;;;;;;23.23;59.76;96060.51;1766711;79;21519;-83
2021/08/16 00:06:04;;;;;;;7.33;5.95;;;;;;;23.32;60.27;96052.28;1771279;79;20971;-82
2021/08/16 00:08:30;;;;;;;6.17;5.47;;;;;;;23.38;60.17;96061.00;1754056;80;20986;-82
2021/08/16 00:10:56;;;;;;;7.00;6.30;;;;;;;23.39;60.35;96055.95;1774610;79;21383;-82
2021/08/16 00:13:24;;;;;;;7.40;6.12;;;;;;;23.38;60.65;96054.38;1740192;80;21043;-82
2021/08/16 00:15:52;;;;;;;7.47;5.67;;;;;;;23.36;60.37;96042.72;1740404;80;21408;-82
2021/08/16 00:18:19;;;;;;;6.53;5.55;;;;;;;23.20;59.97;96008.58;1770144;79;21497;-83
2021/08/16 00:20:44;;;;;;;8.23;6.15;;;;;;;23.45;59.17;96033.69;1804122;78;20956;-82
2021/08/16 00:23:10;;;;;;;6.67;5.95;;;;;;;23.49;59.55;96022.78;1803427;77;21061;-82
2021/08/16 00:25:36;;;;;;;8.45;5.65;;;;;;;23.50;60.48;96015.63;1800224;78;21346;-82
2021/08/16 00:28:01;;;;;;;10.93;6.00;;;;;;;23.44;59.82;96020.16;1796354;78;21003;-82
2021/08/16 00:30:27;;;;;;;5.90;5.25;;;;;;;23.40;59.57;96018.30;1794691;78;20919;-82
2021/08/16 00:32:53;;;;;;;7.25;5.47;;;;;;;23.38;60.09;96022.55;1794346;78;21310;-82
2021/08/16 00:35:19;;;;;;;8.35;5.80;;;;;;;23.37;60.51;96018.32;1791721;78;21015;-83
2021/08/16 00:37:45;;;;;;;10.60;6.75;;;;;;;23.35;60.07;96035.03;1795791;77;21395;-82
2021/08/16 00:40:14;;;;;;;10.98;9.45;;;;;;;23.34;61.53;96087.27;1794645;78;21017;-82
2021/08/16 00:42:39;;;;;;;16.05;8.45;;;;;;;23.12;64.03;96123.10;1797837;78;20956;-82
2021/08/16 00:45:07;;;;;;;13.05;8.45;;;;;;;22.55;66.99;96085.73;1796751;78;20941;-82
2021/08/16 00:47:34;;;;;;;14.75;9.15;;;;;;;22.55;66.99;96085.73;1773769;78;21028;-82
2021/08/16 00:50:00;;;;;;;15.30;9.88;;;;;;;22.29;68.59;96058.44;1799297;78;20997;-82
2021/08/16 00:52:27;;;;;;;15.98;8.15;;;;;;;22.03;69.84;96032.45;1796528;78;21342;-82
2021/08/16 00:54:53;;;;;;;11.38;7.75;;;;;;;21.88;71.29;96026.61;1802660;78;20941;-81
2021/08/16 00:57:18;;;;;;;10.78;7.37;;;;;;;21.74;71.97;96024.98;1797978;78;20921;-82
2021/08/16 00:59:44;;;;;;;12.90;8.03;;;;;;;21.63;72.89;96027.33;1795952;78;21300;-82
2021/08/16 01:02:11;;;;;;;10.93;7.97;;;;;;;21.50;73.65;96035.77;1797864;78;20929;-82
2021/08/16 01:04:37;;;;;;;13.30;8.25;;;;;;;21.41;73.93;96038.63;1794277;78;21320;-82
2021/08/16 01:07:04;;;;;;;11.05;7.97;;;;;;;21.39;74.04;96046.02;1800490;78;21015;-82
2021/08/16 01:09:30;;;;;;;12.15;8.48;;;;;;;21.35;74.60;96052.87;1799082;78;20976;-82
2021/08/16 01:11:56;;;;;;;10.93;7.62;;;;;;;21.25;74.80;96053.61;1776194;78;21050;-82
2021/08/16 01:14:21;;;;;;;11.05;7.70;;;;;;;21.23;75.35;96065.73;1800490;78;20909;-82
2021/08/16 01:16:47;;;;;;;8.93;7.17;;;;;;;21.26;75.48;96067.09;1793743;77;20901;-82
2021/08/16 01:19:13;;;;;;;9.48;7.33;;;;;;;21.28;75.43;96073.70;1796261;78;21306;-82
2021/08/16 01:21:39;;;;;;;7.72;6.92;;;;;;;21.28;75.37;96074.23;1800455;78;21071;-81
2021/08/16 01:24:05;;;;;;;8.58;6.25;;;;;;;21.29;75.50;96077.14;1790982;78;21038;-82
2021/08/16 01:26:33;;;;;;;8.03;6.67;;;;;;;21.29;75.64;96066.57;1801749;78;21314;-82
2021/08/16 01:28:59;;;;;;;8.95;6.50;;;;;;;21.30;75.73;96062.88;1794342;78;21012;-82
2021/08/16 01:31:24;;;;;;;8.90;7.58;;;;;;;21.27;76.01;96055.47;1804873;78;20968;-81
2021/08/16 01:33:50;;;;;;;12.90;6.87;;;;;;;21.19;76.21;96046.69;1798390;78;20921;-82
2021/08/16 01:36:17;;;;;;;10.05;7.67;;;;;;;21.09;76.30;96050.06;1802682;78;21104;-81
2021/08/16 01:38:43;;;;;;;9.13;6.65;;;;;;;21.06;76.42;96054.54;1799893;77;21043;-81
2021/08/16 01:41:09;;;;;;;7.97;6.72;;;;;;;21.04;76.56;96052.69;1800988;78;20981;-82
2021/08/16 01:43:35;;;;;;;9.60;6.90;;;;;;;20.89;76.85;96042.02;1795591;78;21014;-81
2021/08/16 01:46:04;;;;;;;8.05;6.47;;;;;;;20.89;76.85;96042.02;1800316;78;20899;-81
2021/08/16 01:48:29;;;;;;;9.33;6.80;;;;;;;20.81;77.17;96038.52;1797598;78;21407;-81
2021/08/16 01:50:56;;;;;;;8.43;5.80;;;;;;;20.71;77.55;96031.35;1796330;78;21052;-82
2021/08/16 01:53:22;;;;;;;9.23;6.58;;;;;;;20.62;77.96;96025.73;1769379;78;20985;-81
2021/08/16 01:55:48;;;;;;;8.38;6.60;;;;;;;20.52;77.97;96032.80;1804876;78;20981;-81
2021/08/16 01:58:14;;;;;;;8.03;6.30;;;;;;;20.46;78.32;96037.75;1789770;78;20929;-81
2021/08/16 02:00:40;;;;;;;8.00;6.30;;;;;;;20.42;78.42;96040.63;1770774;80;21389;-82
2021/08/16 02:03:05;;;;;;;6.95;6.25;;;;;;;20.39;78.65;96037.42;1768447;79;20960;-81
2021/08/16 02:05:31;;;;;;;9.95;6.58;;;;;;;20.33;78.89;96034.45;1773142;80;21013;-81
2021/08/16 02:07:59;;;;;;;9.35;6.83;;;;;;;20.29;79.11;96045.23;1771067;80;20989;-81
2021/08/16 02:10:25;;;;;;;8.25;6.22;;;;;;;20.25;79.28;96048.11;1771796;80;20993;-81
2021/08/16 02:12:50;;;;;;;8.38;6.67;;;;;;;20.22;79.57;96044.66;1749474;80;21044;-81
2021/08/16 02:15:16;;;;;;;8.68;6.55;;;;;;;20.16;79.84;96035.09;1769642;80;21459;-81
2021/08/16 02:17:42;;;;;;;9.65;6.90;;;;;;;20.12;80.12;96029.26;1776029;78;21035;-81
2021/08/16 02:20:08;;;;;;;7.58;6.87;;;;;;;20.05;80.01;96032.11;1777790;78;21017;-81
2021/08/16 02:22:34;;;;;;;8.23;7.05;;;;;;;20.03;80.22;96032.88;1795761;78;21324;-81
2021/08/16 02:25:00;;;;;;;8.98;7.03;;;;;;;19.99;80.55;96025.17;1800247;78;21052;-81
2021/08/16 02:27:25;;;;;;;10.28;7.00;;;;;;;19.95;80.75;96020.13;1797583;78;20961;-81
2021/08/16 02:29:51;;;;;;;8.35;6.45;;;;;;;19.92;81.06;96007.45;1797091;78;21707;-81
2021/08/16 02:32:17;;;;;;;8.18;7.37;;;;;;;19.89;81.30;96004.00;1796779;78;20961;-82
2021/08/16 02:34:42;;;;;;;9.50;7.17;;;;;;;19.84;81.46;96000.77;1797661;78;21013;-81
2021/08/16 02:37:08;;;;;;;7.62;6.83;;;;;;;19.79;81.54;95996.26;1793202;78;21034;-81
2021/08/16 02:39:34;;;;;;;8.13;6.87;;;;;;;19.76;81.87;95985.42;1786732;78;21022;-80
2021/08/16 02:41:59;;;;;;;8.28;7.30;;;;;;;19.73;81.90;95984.08;1799074;78;20935;-81
2021/08/16 02:44:25;;;;;;;10.15;7.25;;;;;;;19.73;82.29;95977.48;1803997;78;21012;-81
2021/08/16 02:46:51;;;;;;;9.43;7.67;;;;;;;19.72;82.49;95968.00;1797149;78;21527;-81
2021/08/16 02:49:17;;;;;;;7.92;6.65;;;;;;;19.70;82.39;95961.38;1799951;78;21410;-81
2021/08/16 02:51:43;;;;;;;8.03;7.08;;;;;;;19.71;82.54;95955.86;1805811;78;21022;-81
2021/08/16 02:54:08;;;;;;;8.18;7.30;;;;;;;19.73;82.54;95945.06;1797171;78;20946;-81
2021/08/16 02:56:34;;;;;;;8.63;7.15;;;;;;;19.78;82.78;95944.58;1798517;77;20930;-81
2021/08/16 02:59:00;;;;;;;8.60;6.97;;;;;;;19.78;82.46;95939.83;1777222;78;21695;-81
2021/08/16 03:01:26;;;;;;;8.68;7.72;;;;;;;19.84;82.67;95933.55;1800311;78;20969;-81
2021/08/16 03:03:51;;;;;;;10.32;6.92;;;;;;;19.86;82.59;95926.73;1801150;77;20953;-81
2021/08/16 03:06:17;;;;;;;8.60;6.75;;;;;;;19.89;82.40;95923.59;1795385;78;21347;-81
2021/08/16 03:08:44;;;;;;;7.95;7.15;;;;;;;19.97;82.33;95937.09;1792565;78;21096;-81
2021/08/16 03:11:09;;;;;;;6.90;6.30;;;;;;;19.98;82.34;95925.49;1800398;78;21054;-81
2021/08/16 03:13:35;;;;;;;9.20;6.95;;;;;;;20.01;82.18;95925.02;1802403;78;21012;-81
2021/08/16 03:16:01;;;;;;;7.97;6.50;;;;;;;20.02;82.13;95922.65;1793827;78;21074;-81
2021/08/16 03:18:27;;;;;;;8.08;7.17;;;;;;;20.06;82.32;95924.25;1795191;78;21021;-81
2021/08/16 03:20:53;;;;;;;8.38;7.15;;;;;;;20.02;82.08;95933.72;1793502;78;21006;-81
2021/08/16 03:23:20;;;;;;;9.03;6.92;;;;;;;20.01;82.21;95928.97;1773775;78;20937;-81
2021/08/16 03:25:46;;;;;;;8.85;7.15;;;;;;;19.99;82.49;95938.16;1806193;78;21295;-81
2021/08/16 03:28:11;;;;;;;13.50;8.30;;;;;;;19.88;82.15;95946.52;1791945;78;21032;-81
2021/08/16 03:30:37;;;;;;;11.00;8.98;;;;;;;19.79;81.67;95958.03;1790954;78;21020;-81
2021/08/16 03:33:03;;;;;;;12.78;10.05;;;;;;;19.75;81.12;95956.95;1799816;78;21010;-81
2021/08/16 03:35:29;;;;;;;10.82;9.63;;;;;;;19.71;81.33;95972.20;1801940;77;20949;-81
2021/08/16 03:37:54;;;;;;;10.43;9.40;;;;;;;19.69;81.34;95955.32;1774315;78;20980;-81
2021/08/16 03:40:20;;;;;;;10.85;9.68;;;;;;;19.70;81.62;95946.36;1777048;78;20932;-81
2021/08/16 03:42:46;;;;;;;9.93;8.98;;;;;;;19.66;81.92;95929.96;1804918;78;20930;-80
2021/08/16 03:45:18;;;;;;;9.68;8.35;;;;;;;19.61;82.01;95935.19;1806451;78;21451;-80
2021/08/16 03:47:44;;;;;;;8.73;7.87;;;;;;;19.57;82.37;95929.63;1799749;77;20971;-81
2021/08/16 03:50:10;;;;;;;9.23;8.18;;;;;;;19.55;82.70;95917.75;1793900;78;21020;-81
2021/08/16 03:52:36;;;;;;;9.50;8.28;;;;;;;19.56;82.85;95921.45;1800800;78;20954;-81
2021/08/16 03:55:02;;;;;;;9.30;7.67;;;;;;;19.62;82.94;95920.97;1779365;78;20924;-81
2021/08/16 03:57:28;;;;;;;8.15;7.35;;;;;;;19.64;83.00;95917.56;1801764;78;20944;-81
2021/08/16 03:59:53;;;;;;;10.15;7.58;;;;;;;19.67;83.02;95915.73;1798438;78;21330;-81
2021/08/16 04:02:21;;;;;;;8.45;6.72;;;;;;;19.67;83.20;95915.21;1798127;77;20943;-81
2021/08/16 04:04:47;;;;;;;8.20;6.75;;;;;;;19.66;83.24;95919.42;1803641;78;21367;-81
2021/08/16 04:07:12;;;;;;;10.03;7.22;;;;;;;19.69;83.24;95924.22;1795231;78;20952;-81
2021/08/16 04:09:38;;;;;;;8.18;6.17;;;;;;;19.71;83.23;95925.55;1798520;78;20963;-81
2021/08/16 04:12:05;;;;;;;6.55;5.95;;;;;;;19.74;83.34;95913.70;1795896;78;21406;-81
2021/08/16 04:14:31;;;;;;;8.75;6.67;;;;;;;19.76;83.35;95909.77;1801554;78;21363;-81
2021/08/16 04:16:57;;;;;;;8.45;6.75;;;;;;;19.76;83.32;95907.13;1797868;78;20944;-81
2021/08/16 04:19:22;;;;;;;9.43;7.12;;;;;;;19.72;83.34;95907.37;1772569;78;21004;-81
2021/08/16 04:21:48;;;;;;;8.08;6.17;;;;;;;19.72;83.36;95907.37;1800053;78;20932;-81
2021/08/16 04:24:15;;;;;;;9.45;7.28;;;;;;;19.74;83.72;95915.81;1798774;78;20976;-81
2021/08/16 04:26:40;;;;;;;10.10;7.72;;;;;;;19.78;83.48;95906.36;1792158;78;21461;-81
2021/08/16 04:29:06;;;;;;;8.38;6.65;;;;;;;19.81;83.31;95905.05;1794520;78;21003;-81
2021/08/16 04:31:32;;;;;;;8.70;6.30;;;;;;;19.86;82.72;95908.28;1779570;78;20988;-80
2021/08/16 04:33:58;;;;;;;9.05;6.22;;;;;;;19.94;81.31;95897.25;1794630;78;21051;-81
2021/08/16 04:36:23;;;;;;;8.10;6.83;;;;;;;20.09;81.83;95902.64;1799203;78;21005;-80
2021/08/16 04:38:49;;;;;;;8.13;5.97;;;;;;;20.22;81.25;95896.94;1802165;78;20980;-81
2021/08/16 04:41:15;;;;;;;9.03;6.97;;;;;;;20.31;80.15;95903.31;1801731;78;21027;-80
2021/08/16 04:43:40;;;;;;;6.70;6.00;;;;;;;20.35;80.25;95906.26;1804399;78;20978;-81
2021/08/16 04:46:06;;;;;;;9.45;5.78;;;;;;;20.37;79.44;95909.43;1799641;78;21096;-81
2021/08/16 04:48:32;;;;;;;8.95;5.85;;;;;;;20.48;79.62;95918.22;1778373;78;21037;-81
2021/08/16 04:50:58;;;;;;;8.13;6.35;;;;;;;20.52;78.83;95902.16;1792396;78;20981;-81
2021/08/16 04:53:23;;;;;;;8.20;6.45;;;;;;;20.58;79.04;95911.69;1789603;78;21021;-81
2021/08/16 04:55:49;;;;;;;8.85;6.45;;;;;;;20.57;78.63;95914.85;1790646;78;21012;-81
2021/08/16 04:58:15;;;;;;;6.25;4.65;;;;;;;20.60;78.44;95910.38;1795769;78;21360;-81
2021/08/16 05:00:40;;;;;;;6.78;5.30;;;;;;;20.66;77.12;95910.69;1788857;78;21041;-81
2021/08/16 05:03:06;;;;;;;8.83;5.70;;;;;;;20.75;77.29;95916.79;1790273;78;20936;-81
2021/08/16 05:05:32;;;;;;;9.30;5.47;;;;;;;20.81;77.45;95921.03;1793882;78;21424;-81
2021/08/16 05:08:00;;;;;;;6.10;4.65;;;;;;;20.81;76.47;95925.78;1784513;78;21012;-81
2021/08/16 05:10:27;;;;;;;6.22;4.85;;;;;;;20.88;75.29;95931.64;1796257;78;20952;-81
2021/08/16 05:12:55;;;;;;;7.58;5.22;;;;;;;21.03;75.67;95939.37;1790032;78;21032;-81
2021/08/16 05:15:21;;;;;;;6.50;5.47;;;;;;;21.09;74.71;95927.75;1794872;78;20944;-81
2021/08/16 05:17:47;;;;;;;9.80;5.58;;;;;;;21.16;74.51;95925.69;1797733;79;21449;-81
2021/08/16 05:20:13;;;;;;;9.15;5.00;;;;;;;21.21;74.64;95921.73;1766417;80;21118;-81
2021/08/16 05:22:43;;;;;;;7.05;4.95;;;;;;;21.25;73.12;95928.11;1757770;80;20942;-81
2021/08/16 05:25:09;;;;;;;6.95;5.50;;;;;;;21.34;73.06;95931.84;1805095;78;20927;-81
2021/08/16 05:27:35;;;;;;;5.92;5.25;;;;;;;21.41;71.68;95940.30;1786641;79;20956;-81
2021/08/16 05:30:01;;;;;;;8.68;4.67;;;;;;;21.54;70.01;95934.53;1790826;79;20920;-81
2021/08/16 05:32:27;;;;;;;6.53;4.78;;;;;;;21.67;70.96;95937.73;1790208;78;20945;-81
2021/08/16 05:34:52;;;;;;;7.78;4.67;;;;;;;21.75;69.99;95943.80;1797393;79;20980;-81
2021/08/16 05:37:18;;;;;;;6.20;4.58;;;;;;;21.82;69.51;95948.33;1791193;79;21439;-81
2021/08/16 05:39:44;;;;;;;7.65;4.75;;;;;;;21.84;69.76;95954.94;1789853;79;20921;-81
2021/08/16 05:42:09;;;;;;;9.05;5.40;;;;;;;21.91;68.52;95955.20;1785546;78;20976;-81
2021/08/16 05:44:35;;;;;;;7.03;4.90;;;;;;;21.96;68.68;95975.03;1785923;78;21570;-81
2021/08/16 05:47:02;;;;;;;6.65;5.50;;;;;;;21.99;68.94;95965.27;1765726;79;21009;-81
2021/08/16 05:49:28;;;;;;;5.58;4.40;;;;;;;21.98;67.86;95965.80;1804132;78;20956;-81
2021/08/16 05:51:55;;;;;;;6.83;5.20;;;;;;;22.04;66.48;95971.88;1806883;77;20996;-81
2021/08/16 05:54:22;;;;;;;7.47;4.95;;;;;;;22.13;68.45;95978.28;1809983;78;20977;-82
2021/08/16 05:56:47;;;;;;;9.18;5.10;;;;;;;22.16;67.11;95977.73;1809603;77;20984;-81
2021/08/16 05:59:13;;;;;;;6.15;4.70;;;;;;;22.20;68.15;95983.29;1818154;77;20914;-82
2021/08/16 06:01:39;;;;;;;8.83;4.60;;;;;;;22.18;66.78;95977.47;1799856;78;21414;-81
2021/08/16 06:04:07;;;;;;;6.90;5.92;;;;;;;22.20;66.80;95985.41;1810963;77;21052;-81
2021/08/16 06:06:34;;;;;;;6.70;4.95;;;;;;;22.24;67.65;95989.11;1810192;78;21316;-81
2021/08/16 06:09:00;;;;;;;7.55;5.40;;;;;;;22.22;67.95;95996.52;1817577;77;21059;-81
2021/08/16 06:11:26;;;;;;;6.17;5.20;;;;;;;22.21;67.14;95992.81;1811901;77;21386;-81
2021/08/16 06:13:52;;;;;;;6.47;5.22;;;;;;;22.27;67.32;95999.69;1808131;77;21063;-81
2021/08/16 06:16:17;;;;;;;6.35;5.15;;;;;;;22.32;67.15;95993.88;1796621;78;20980;-81
2021/08/16 06:18:44;;;;;;;6.03;5.28;;;;;;;22.36;66.37;95997.58;1811660;77;21310;-81
2021/08/16 06:21:10;;;;;;;7.87;4.95;;;;;;;22.43;67.03;96002.59;1816037;78;21036;-81
2021/08/16 06:23:35;;;;;;;8.08;5.20;;;;;;;22.44;66.86;95997.56;1798134;77;21042;-81
2021/08/16 06:26:03;;;;;;;6.58;4.85;;;;;;;22.44;68.13;96003.66;1812652;77;21003;-81
2021/08/16 06:28:28;;;;;;;5.92;4.65;;;;;;;22.40;66.42;96005.25;1817094;77;21026;-81
2021/08/16 06:30:54;;;;;;;5.70;4.75;;;;;;;22.45;66.79;95999.15;1809700;77;21335;-81
2021/08/16 06:33:20;;;;;;;5.00;4.17;;;;;;;22.51;66.77;96000.75;1817228;78;20964;-81
2021/08/16 06:35:46;;;;;;;6.03;4.87;;;;;;;22.52;67.28;96004.19;1815706;77;21005;-81
2021/08/16 06:38:21;;;;;;;6.00;4.90;;;;;;;22.51;68.14;96006.05;1813835;77;21008;-81
2021/08/16 06:40:40;;;;;;;5.95;4.53;;;;;;;22.50;67.84;96003.14;1811406;77;21399;-81
2021/08/16 06:43:06;;;;;;;5.35;4.65;;;;;;;22.48;67.69;96003.94;1812555;79;21001;-81
2021/08/16 06:45:31;;;;;;;6.15;4.75;;;;;;;22.52;67.15;96002.87;1805639;78;21039;-81
2021/08/16 06:47:57;;;;;;;5.03;4.50;;;;;;;22.56;67.11;96000.73;1791935;77;21013;-81
2021/08/16 06:50:23;;;;;;;7.45;4.40;;;;;;;22.62;65.89;96006.84;1756215;80;21028;-81
2021/08/16 06:52:49;;;;;;;7.80;4.37;;;;;;;22.65;66.96;96007.63;1745788;81;20973;-81
2021/08/16 06:55:15;;;;;;;6.53;4.12;;;;;;;22.68;66.29;96012.38;1758352;80;21304;-81
2021/08/16 06:57:40;;;;;;;7.70;4.85;;;;;;;22.69;66.91;96011.33;1746517;80;20937;-82
2021/08/16 07:00:07;;;;;;;5.22;4.72;;;;;;;22.70;66.31;96014.23;1742360;80;20968;-81
2021/08/16 07:02:33;;;;;;;7.85;4.97;;;;;;;22.71;66.82;96019.26;1746948;80;21032;-82
2021/08/16 07:04:59;;;;;;;5.50;4.17;;;;;;;22.73;66.60;96018.98;1727506;81;21000;-82
2021/08/16 07:07:24;;;;;;;6.17;4.00;;;;;;;22.74;66.87;96017.92;1737137;80;21090;-81
2021/08/16 07:09:50;;;;;;;6.53;4.72;;;;;;;22.75;66.22;96018.19;1746989;80;21422;-81
2021/08/16 07:12:16;;;;;;;7.87;4.17;;;;;;;22.79;66.18;96016.61;1744021;80;21075;-81
2021/08/16 07:14:41;;;;;;;5.28;4.42;;;;;;;22.86;67.00;96014.50;1752760;80;21001;-81
2021/08/16 07:17:07;;;;;;;6.95;4.72;;;;;;;22.88;67.39;96012.91;1749182;80;21036;-83
2021/08/16 07:19:33;;;;;;;4.97;3.87;;;;;;;22.87;65.90;96017.41;1749870;80;20973;-83
2021/08/16 07:21:58;;;;;;;7.90;4.28;;;;;;;22.90;65.49;96020.05;1753636;80;20941;-83
2021/08/16 07:24:25;;;;;;;6.45;4.58;;;;;;;22.92;65.77;96018.72;1753706;80;21049;-83
2021/08/16 07:26:52;;;;;;;6.22;4.53;;;;;;;22.97;65.20;96024.55;1755077;81;21372;-82
2021/08/16 07:29:18;;;;;;;4.75;3.95;;;;;;;23.04;65.58;96028.50;1757692;80;20959;-83
2021/08/16 07:31:43;;;;;;;5.47;4.50;;;;;;;23.11;64.77;96022.94;1748240;80;21422;-83
2021/08/16 07:34:09;;;;;;;5.60;4.35;;;;;;;23.15;65.35;96030.59;1740933;80;20932;-83
2021/08/16 07:36:35;;;;;;;8.43;4.22;;;;;;;23.22;64.15;96028.98;1746143;80;21361;-82
2021/08/16 07:39:00;;;;;;;5.95;4.22;;;;;;;23.30;64.33;96028.44;1735161;81;20964;-83
2021/08/16 07:41:26;;;;;;;5.10;4.60;;;;;;;23.36;65.01;96033.44;1742585;80;20968;-83
2021/08/16 07:43:52;;;;;;;5.97;5.08;;;;;;;23.43;64.18;96037.14;1745143;80;21026;-82
2021/08/16 07:46:18;;;;;;;5.00;4.08;;;;;;;23.52;62.80;96034.17;1755557;80;21059;-83
2021/08/16 07:48:44;;;;;;;6.72;4.25;;;;;;;23.64;61.96;96031.23;1746952;80;21397;-83
2021/08/16 07:51:10;;;;;;;6.92;4.25;;;;;;;23.76;62.77;96037.55;1747199;80;20992;-83
2021/08/16 07:53:35;;;;;;;6.75;4.50;;;;;;;23.83;62.64;96034.84;1755608;80;20970;-83
2021/08/16 07:56:01;;;;;;;6.45;4.72;;;;;;;23.89;62.94;96039.58;1747332;81;21382;-83
2021/08/16 07:58:27;;;;;;;9.03;5.12;;;;;;;23.98;61.93;96045.12;1751619;81;20976;-83
2021/08/16 08:00:53;;;;;;;6.20;4.75;;;;;;;24.05;63.12;96044.27;1755543;80;20939;-83
2021/08/16 08:03:19;;;;;;;5.75;4.20;;;;;;;24.14;62.34;96049.27;1757005;80;20995;-81
2021/08/16 08:05:44;;;;;;;6.00;4.78;;;;;;;24.21;62.06;96043.89;1748798;81;20920;-81
2021/08/16 08:08:10;;;;;;;7.33;4.80;;;;;;;24.29;61.48;96046.53;1759395;80;21003;-80
2021/08/16 08:10:36;;;;;;;4.50;4.00;;;;;;;24.37;62.46;96053.90;1749973;80;21075;-81
2021/08/16 08:13:02;;;;;;;6.37;4.50;;;;;;;24.45;62.03;96050.66;1748994;80;21018;-80
2021/08/16 08:15:28;;;;;;;5.15;4.12;;;;;;;24.51;61.32;96044.77;1746815;80;21032;-81
2021/08/16 08:17:53;;;;;;;4.87;3.95;;;;;;;24.58;60.66;96048.45;1744841;81;20939;-81
2021/08/16 08:20:19;;;;;;;4.80;4.30;;;;;;;24.65;60.18;96048.91;1744827;79;20944;-81
2021/08/16 08:22:45;;;;;;;8.78;4.28;;;;;;;24.77;60.83;96050.67;1754959;80;20979;-81
2021/08/16 08:25:11;;;;;;;5.72;4.45;;;;;;;24.87;59.40;96049.77;1752372;80;21034;-81
2021/08/16 08:27:37;;;;;;;6.40;4.70;;;;;;;24.93;59.86;96055.30;1748420;80;21043;-81
2021/08/16 08:30:05;;;;;;;6.33;4.70;;;;;;;24.98;60.20;96056.04;1767678;80;21310;-81
2021/08/16 08:32:31;;;;;;;5.22;4.37;;;;;;;25.00;59.78;96052.59;1742856;80;21023;-81
2021/08/16 08:34:57;;;;;;;6.67;4.62;;;;;;;25.01;61.94;96058.16;1756246;80;21004;-81
2021/08/16 08:37:23;;;;;;;6.70;4.80;;;;;;;24.99;60.50;96052.30;1747481;80;21464;-81
2021/08/16 08:39:48;;;;;;;6.53;4.85;;;;;;;24.99;60.50;96052.30;1756910;80;21027;-81
2021/08/16 08:42:14;;;;;;;5.42;4.83;;;;;;;24.97;61.21;96057.66;1754297;80;21016;-81
2021/08/16 08:44:41;;;;;;;8.05;4.72;;;;;;;24.93;61.73;96056.09;1753683;80;20893;-81
2021/08/16 08:47:07;;;;;;;7.20;4.60;;;;;;;24.94;62.00;96051.58;1753834;80;20947;-81
2021/08/16 08:49:34;;;;;;;5.40;4.20;;;;;;;25.01;59.62;96050.73;1776819;78;21451;-81
2021/08/16 08:52:00;;;;;;;5.42;4.05;;;;;;;25.13;60.18;96057.25;1794513;78;21000;-81
2021/08/16 08:54:27;;;;;;;6.25;4.53;;;;;;;25.28;60.29;96052.31;1792665;78;20968;-81
2021/08/16 08:56:53;;;;;;;6.28;4.80;;;;;;;25.41;58.84;96044.20;1790392;78;21486;-82
2021/08/16 08:59:18;;;;;;;6.15;4.40;;;;;;;25.53;59.53;96041.11;1804138;78;21378;-82
2021/08/16 09:01:53;;;;;;;6.00;4.05;;;;;;;25.65;59.07;96038.84;1793881;78;20980;-81
2021/08/16 09:04:19;;;;;;;6.37;4.35;;;;;;;25.78;57.70;96039.50;1786363;78;20961;-81
2021/08/16 09:06:45;;;;;;;7.62;5.53;;;;;;;25.87;57.60;96035.13;1806753;77;20941;-81
2021/08/16 09:09:11;;;;;;;4.78;4.12;;;;;;;25.96;57.67;96027.28;1797499;78;20989;-81
2021/08/16 09:11:37;;;;;;;6.33;4.62;;;;;;;26.05;57.53;96019.45;1796663;78;21321;-81
2021/08/16 09:14:04;;;;;;;6.83;4.20;;;;;;;26.17;57.42;96024.56;1803203;78;21047;-81
2021/08/16 09:16:34;;;;;;;7.92;4.72;;;;;;;26.17;57.62;96019.23;1801290;78;21699;-82
2021/08/16 09:19:23;;;;;;;6.60;4.25;;;;;;;26.23;58.24;96022.09;1793481;78;21011;-81
2021/08/16 09:22:03;;;;;;;5.80;4.28;;;;;;;26.23;58.24;96022.09;1773702;78;20969;-82
2021/08/16 09:24:31;;;;;;;6.12;4.58;;;;;;;26.21;58.80;96023.47;1797353;78;21052;-82
2021/08/16 09:27:10;;;;;;;5.42;4.15;;;;;;;26.16;56.52;96023.52;1798239;78;20972;-82
2021/08/16 09:29:36;;;;;;;6.85;4.10;;;;;;;26.16;56.38;96032.30;1793970;78;21013;-81
2021/08/16 09:32:04;;;;;;;5.25;4.37;;;;;;;26.22;56.79;96032.49;1787664;78;21341;-81
2021/08/16 09:34:37;;;;;;;5.25;4.75;;;;;;;26.29;57.90;96027.58;1793556;78;21040;-82
2021/08/16 09:37:21;;;;;;;6.80;4.00;;;;;;;26.29;58.20;96030.23;1790953;78;21011;-82
2021/08/16 09:40:06;;;;;;;5.12;4.62;;;;;;;26.33;57.68;96030.45;1800818;78;21448;-82
2021/08/16 09:42:46;;;;;;;5.30;4.08;;;;;;;26.39;58.34;96024.55;1790934;78;21019;-81
2021/08/16 09:45:14;;;;;;;6.70;4.50;;;;;;;26.26;57.89;96008.73;1802957;78;20972;-81
2021/08/16 09:47:44;;;;;;;5.25;4.75;;;;;;;26.45;58.05;96028.16;1805205;78;20974;-81
2021/08/16 09:50:12;;;;;;;6.03;3.90;;;;;;;26.51;56.64;96024.32;1802942;78;21049;-81
2021/08/16 09:52:38;;;;;;;7.78;4.83;;;;;;;26.62;57.36;96011.62;1794100;78;20950;-81
2021/08/16 09:55:05;;;;;;;5.67;4.10;;;;;;;26.71;58.76;96018.42;1802570;78;20973;-81
2021/08/16 09:57:32;;;;;;;6.03;4.37;;;;;;;26.77;55.73;96024.70;1797594;78;20929;-82
2021/08/16 09:59:58;;;;;;;6.53;3.92;;;;;;;26.65;54.93;96011.58;1802158;78;21313;-82
2021/08/16 10:02:26;;;;;;;5.17;4.00;;;;;;;26.63;57.53;96018.00;1793354;78;20992;-81
2021/08/16 10:04:57;;;;;;;4.47;3.83;;;;;;;26.63;54.72;96013.21;1801449;78;21343;-82
2021/08/16 10:07:29;;;;;;;4.35;3.95;;;;;;;26.65;54.97;96004.92;1803403;78;20979;-81
2021/08/16 10:09:59;;;;;;;4.53;3.85;;;;;;;26.74;54.96;96009.30;1795766;78;21027;-81
2021/08/16 10:12:31;;;;;;;5.33;3.80;;;;;;;26.72;55.45;96008.02;1791863;78;20964;-82
2021/08/16 10:14:59;;;;;;;;;;;;;;;26.72;56.17;96003.47;1792825;78;20941;-82
2021/08/16 10:17:36;;;;;;;7.75;3.70;;;;;;;26.84;56.04;96007.77;1794463;78;20493;-82
2021/08/16 10:20:03;;;;;;;4.75;3.12;;;;;;;26.96;53.90;96005.96;1799242;78;21033;-81
2021/08/16 10:22:37;;;;;;;3.87;3.00;;;;;;;27.12;53.32;96001.16;1790449;78;20936;-82
2021/08/16 10:25:16;;;;;;;4.20;3.30;;;;;;;27.15;52.67;95991.23;1792513;78;20981;-81
2021/08/16 10:27:42;;;;;;;5.22;3.37;;;;;;;27.04;54.04;95991.99;1795974;78;21016;-83
2021/08/16 10:30:11;;;;;;;4.28;3.37;;;;;;;26.87;53.18;95987.75;1799534;78;20909;-83
2021/08/16 10:32:37;;;;;;;6.53;3.72;;;;;;;26.82;53.05;95990.48;1799965;78;21356;-81
2021/08/16 10:35:17;;;;;;;4.87;3.10;;;;;;;26.86;54.04;95993.63;1780489;78;21003;-81
2021/08/16 10:37:44;;;;;;;4.10;3.00;;;;;;;26.92;52.10;95992.44;1796312;78;20942;-81
2021/08/16 10:40:17;;;;;;;6.67;3.47;;;;;;;27.04;52.51;95984.53;1799603;78;20996;-82
2021/08/16 10:42:43;;;;;;;5.37;3.50;;;;;;;27.18;54.69;95985.33;1789873;77;21411;-81
2021/08/16 10:45:10;;;;;;;5.20;3.92;;;;;;;27.29;52.43;95980.56;1799408;78;20969;-81
2021/08/16 10:47:36;;;;;;;5.85;3.37;;;;;;;27.41;51.61;95982.19;1791551;78;21482;-82
2021/08/16 10:50:13;;;;;;;5.45;2.80;;;;;;;27.52;51.35;95979.56;1764491;78;21014;-81
2021/08/16 10:52:43;;;;;;;6.05;3.08;;;;;;;27.58;50.83;95975.69;1752547;80;21074;-81
2021/08/16 10:55:25;;;;;;;4.22;2.87;;;;;;;27.68;52.09;95975.52;1754300;80;21062;-81
2021/08/16 10:57:51;;;;;;;4.72;2.85;;;;;;;27.76;50.38;95971.33;1746307;80;20943;-82
2021/08/16 11:00:18;;;;;;;5.25;3.12;;;;;;;27.78;50.11;95971.27;1750190;80;21363;-82
2021/08/16 11:02:43;;;;;;;6.10;3.20;;;;;;;27.83;50.47;95966.38;1726223;81;20983;-81
2021/08/16 11:05:11;;;;;;;5.97;3.58;;;;;;;27.94;49.49;95965.03;1753593;80;21299;-82
2021/08/16 11:07:37;;;;;;;5.55;3.00;;;;;;;28.05;49.99;95964.27;1751402;80;21003;-81
2021/08/16 11:10:05;;;;;;;3.25;2.60;;;;;;;28.11;50.45;95971.84;1746957;80;21074;-82
2021/08/16 11:12:43;;;;;;;4.45;3.02;;;;;;;28.15;47.93;95968.56;1760955;80;21048;-82
2021/08/16 11:15:13;;;;;;;5.08;3.90;;;;;;;28.17;48.84;95971.73;1755376;80;21070;-81
2021/08/16 11:17:39;;;;;;;5.37;2.98;;;;;;;28.24;49.40;95966.20;1754353;80;21014;-81
2021/08/16 11:20:07;;;;;;;5.50;3.27;;;;;;;28.27;48.42;95957.61;1748270;80;21067;-81
2021/08/16 11:22:33;;;;;;;5.40;3.08;;;;;;;28.31;49.43;95959.11;1758647;80;21011;-81
2021/08/16 11:25:06;;;;;;;4.87;2.85;;;;;;;28.39;49.99;95955.17;1753082;80;21409;-81
2021/08/16 11:27:32;;;;;;;4.47;3.35;;;;;;;28.48;50.44;95949.10;1753170;80;21383;-81
2021/08/16 11:30:06;;;;;;;5.55;2.90;;;;;;;28.56;48.63;95947.80;1748321;80;20932;-82